This is the latest recevied weather packets stored in our database for station/object CA3SQH-10. If no packets are shown the sender has not sent any weather packets the latest 1 day(s).
| Time | Temp. | Humidity | Pressure | Rain* | Wind** | Luminosity | Snow |
|---|---|---|---|---|---|---|---|
| 1778081963 | 18.89° C | 55% | 939 hPa | - | - | - | - |
| 1778081063 | 18.33° C | 57% | 939.1 hPa | - | - | - | - |
| 1778077462 | 17.78° C | 60% | 938.2 hPa | - | - | - | - |
| 1778076562 | 17.78° C | 60% | 938.4 hPa | - | - | - | - |
| 1778072961 | 15.56° C | 68% | 939 hPa | - | - | - | - |
| 1778065135 | 13.33° C | 68% | 938.3 hPa | - | - | - | - |
| 1778064235 | 13.89° C | 65% | 938 hPa | - | - | - | - |
| 1778060634 | 13.89° C | 69% | 937.5 hPa | - | - | - | - |
| 1778059734 | 13.89° C | 70% | 937.2 hPa | - | - | - | - |
| 1778057033 | 14.44° C | 67% | 936.6 hPa | - | - | - | - |
| 1778056133 | 13.89° C | 67% | 936.8 hPa | - | - | - | - |
| 1778055180 | 14.44° C | 66% | 936.9 hPa | - | - | - | - |
| 1778054280 | 14.44° C | 66% | 936.9 hPa | - | - | - | - |
| 1778053380 | 13.89° C | 66% | 936.6 hPa | - | - | - | - |
| 1778052479 | 14.44° C | 66% | 936.5 hPa | - | - | - | - |
| 1778050679 | 15° C | 67% | 936.6 hPa | - | - | - | - |
| 1778049779 | 15° C | 67% | 936.7 hPa | - | - | - | - |
| 1778047152 | 15.56° C | 66% | 937 hPa | - | - | - | - |
| 1778046183 | 15.56° C | 67% | 937.2 hPa | - | - | - | - |
| 1778045283 | 15.56° C | 67% | 937.1 hPa | - | - | - | - |
| 1778044383 | 15.56° C | 66% | 937.3 hPa | - | - | - | - |
| 1778041682 | 16.11° C | 65% | 937.4 hPa | - | - | - | - |
| 1778040782 | 16.11° C | 65% | 937.6 hPa | - | - | - | - |
| 1778039882 | 16.11° C | 65% | 937.6 hPa | - | - | - | - |
| 1778038081 | 16.11° C | 64% | 937.8 hPa | - | - | - | - |
* Rain since midnight (hover to see other rain measurements)
** Current wind speed in m/s (hover to see current wind gust speed)